sensor_id;sensor_type;location;lat;lon;timestamp;pressure;altitude;pressure_sealevel;temperature
20848;BMP180;10584;50.854;12.902;2023-04-15T00:03:21;96971.00;;;5.60
20848;BMP180;10584;50.854;12.902;2023-04-15T00:08:44;96967.00;;;5.60
20848;BMP180;10584;50.854;12.902;2023-04-15T00:14:05;96968.00;;;5.70
20848;BMP180;10584;50.854;12.902;2023-04-15T00:19:27;96965.00;;;5.60
20848;BMP180;10584;50.854;12.902;2023-04-15T00:24:49;96955.00;;;5.70
20848;BMP180;10584;50.854;12.902;2023-04-15T00:30:11;96951.00;;;5.70
20848;BMP180;10584;50.854;12.902;2023-04-15T00:35:32;96962.00;;;5.70
20848;BMP180;10584;50.854;12.902;2023-04-15T00:40:55;96956.00;;;5.60
20848;BMP180;10584;50.854;12.902;2023-04-15T00:46:16;96945.00;;;5.60
20848;BMP180;10584;50.854;12.902;2023-04-15T00:51:40;96949.00;;;5.70
20848;BMP180;10584;50.854;12.902;2023-04-15T00:57:03;96930.00;;;5.60
20848;BMP180;10584;50.854;12.902;2023-04-15T01:02:25;96941.00;;;5.80
20848;BMP180;10584;50.854;12.902;2023-04-15T01:07:48;96932.00;;;5.70
20848;BMP180;10584;50.854;12.902;2023-04-15T01:13:09;96938.00;;;5.80
20848;BMP180;10584;50.854;12.902;2023-04-15T01:18:33;96929.00;;;5.70
20848;BMP180;10584;50.854;12.902;2023-04-15T01:23:55;96931.00;;;5.80
20848;BMP180;10584;50.854;12.902;2023-04-15T01:29:18;96914.00;;;5.70
20848;BMP180;10584;50.854;12.902;2023-04-15T01:34:39;96919.00;;;5.80
20848;BMP180;10584;50.854;12.902;2023-04-15T01:40:01;96909.00;;;5.60
20848;BMP180;10584;50.854;12.902;2023-04-15T01:45:23;96895.00;;;5.60
20848;BMP180;10584;50.854;12.902;2023-04-15T01:50:45;96889.00;;;5.50
20848;BMP180;10584;50.854;12.902;2023-04-15T01:56:07;96884.00;;;5.50
20848;BMP180;10584;50.854;12.902;2023-04-15T02:01:29;96884.00;;;5.60
20848;BMP180;10584;50.854;12.902;2023-04-15T02:06:52;96883.00;;;5.60
20848;BMP180;10584;50.854;12.902;2023-04-15T02:12:15;96874.00;;;5.60
20848;BMP180;10584;50.854;12.902;2023-04-15T02:17:36;96865.00;;;5.70
20848;BMP180;10584;50.854;12.902;2023-04-15T02:22:58;96865.00;;;5.60
20848;BMP180;10584;50.854;12.902;2023-04-15T02:28:20;96861.00;;;5.60
20848;BMP180;10584;50.854;12.902;2023-04-15T02:33:42;96859.00;;;5.60
20848;BMP180;10584;50.854;12.902;2023-04-15T02:39:03;96852.00;;;5.60
20848;BMP180;10584;50.854;12.902;2023-04-15T02:44:25;96858.00;;;5.60
20848;BMP180;10584;50.854;12.902;2023-04-15T02:49:51;96853.00;;;5.60
20848;BMP180;10584;50.854;12.902;2023-04-15T02:55:15;96861.00;;;5.70
20848;BMP180;10584;50.854;12.902;2023-04-15T03:00:38;96876.00;;;5.60
20848;BMP180;10584;50.854;12.902;2023-04-15T03:06:00;96869.00;;;5.50
20848;BMP180;10584;50.854;12.902;2023-04-15T03:11:22;96875.00;;;5.60
20848;BMP180;10584;50.854;12.902;2023-04-15T03:16:43;96876.00;;;5.60
20848;BMP180;10584;50.854;12.902;2023-04-15T03:22:07;96868.00;;;5.60
20848;BMP180;10584;50.854;12.902;2023-04-15T03:27:28;96864.00;;;5.60
20848;BMP180;10584;50.854;12.902;2023-04-15T03:32:53;96856.00;;;5.60
20848;BMP180;10584;50.854;12.902;2023-04-15T03:38:14;96863.00;;;5.70
20848;BMP180;10584;50.854;12.902;2023-04-15T03:43:35;96848.00;;;5.60
20848;BMP180;10584;50.854;12.902;2023-04-15T03:48:58;96850.00;;;5.60
20848;BMP180;10584;50.854;12.902;2023-04-15T03:54:20;96843.00;;;5.70
20848;BMP180;10584;50.854;12.902;2023-04-15T03:59:42;96855.00;;;5.50
20848;BMP180;10584;50.854;12.902;2023-04-15T04:05:04;96847.00;;;5.50
20848;BMP180;10584;50.854;12.902;2023-04-15T04:10:26;96851.00;;;5.50
20848;BMP180;10584;50.854;12.902;2023-04-15T04:15:47;96853.00;;;5.50
20848;BMP180;10584;50.854;12.902;2023-04-15T04:21:08;96847.00;;;5.60
20848;BMP180;10584;50.854;12.902;2023-04-15T04:26:30;96847.00;;;5.50
20848;BMP180;10584;50.854;12.902;2023-04-15T04:31:51;96856.00;;;5.60
20848;BMP180;10584;50.854;12.902;2023-04-15T04:37:13;96858.00;;;5.50
20848;BMP180;10584;50.854;12.902;2023-04-15T04:42:34;96871.00;;;5.40
20848;BMP180;10584;50.854;12.902;2023-04-15T04:47:59;96863.00;;;5.60
20848;BMP180;10584;50.854;12.902;2023-04-15T04:53:21;96862.00;;;5.60
20848;BMP180;10584;50.854;12.902;2023-04-15T04:58:42;96868.00;;;5.40
20848;BMP180;10584;50.854;12.902;2023-04-15T05:04:04;96854.00;;;5.50
20848;BMP180;10584;50.854;12.902;2023-04-15T05:09:27;96846.00;;;5.60
20848;BMP180;10584;50.854;12.902;2023-04-15T05:14:48;96848.00;;;5.60
20848;BMP180;10584;50.854;12.902;2023-04-15T05:20:10;96850.00;;;5.50
20848;BMP180;10584;50.854;12.902;2023-04-15T05:25:32;96848.00;;;5.50
20848;BMP180;10584;50.854;12.902;2023-04-15T05:30:54;96847.00;;;5.50
20848;BMP180;10584;50.854;12.902;2023-04-15T05:36:15;96868.00;;;5.70
20848;BMP180;10584;50.854;12.902;2023-04-15T05:41:37;96884.00;;;5.80
20848;BMP180;10584;50.854;12.902;2023-04-15T05:46:58;96863.00;;;5.80
20848;BMP180;10584;50.854;12.902;2023-04-15T05:52:21;96859.00;;;5.60
20848;BMP180;10584;50.854;12.902;2023-04-15T05:57:42;96873.00;;;5.70
20848;BMP180;10584;50.854;12.902;2023-04-15T06:03:04;96863.00;;;5.70
20848;BMP180;10584;50.854;12.902;2023-04-15T06:08:26;96893.00;;;5.90
20848;BMP180;10584;50.854;12.902;2023-04-15T06:13:48;96891.00;;;5.80
20848;BMP180;10584;50.854;12.902;2023-04-15T06:19:09;96881.00;;;5.90
20848;BMP180;10584;50.854;12.902;2023-04-15T06:24:32;96896.00;;;5.80
20848;BMP180;10584;50.854;12.902;2023-04-15T06:29:54;96897.00;;;5.90
20848;BMP180;10584;50.854;12.902;2023-04-15T06:35:16;96894.00;;;6.00
20848;BMP180;10584;50.854;12.902;2023-04-15T06:40:41;96895.00;;;6.00
20848;BMP180;10584;50.854;12.902;2023-04-15T06:46:02;96890.00;;;5.90
20848;BMP180;10584;50.854;12.902;2023-04-15T06:51:24;96890.00;;;5.90
20848;BMP180;10584;50.854;12.902;2023-04-15T06:56:46;96902.00;;;6.00
20848;BMP180;10584;50.854;12.902;2023-04-15T07:02:10;96911.00;;;6.10
20848;BMP180;10584;50.854;12.902;2023-04-15T07:07:32;96908.00;;;6.10
20848;BMP180;10584;50.854;12.902;2023-04-15T07:12:54;96907.00;;;6.10
20848;BMP180;10584;50.854;12.902;2023-04-15T07:18:16;96912.00;;;6.10
20848;BMP180;10584;50.854;12.902;2023-04-15T07:23:37;96904.00;;;6.20
20848;BMP180;10584;50.854;12.902;2023-04-15T07:28:58;96906.00;;;6.20
20848;BMP180;10584;50.854;12.902;2023-04-15T07:34:20;96918.00;;;6.30
20848;BMP180;10584;50.854;12.902;2023-04-15T07:39:42;96926.00;;;6.30
20848;BMP180;10584;50.854;12.902;2023-04-15T07:45:03;96927.00;;;6.30
20848;BMP180;10584;50.854;12.902;2023-04-15T07:50:25;96940.00;;;6.30
20848;BMP180;10584;50.854;12.902;2023-04-15T07:55:47;96937.00;;;6.40
20848;BMP180;10584;50.854;12.902;2023-04-15T08:01:09;96943.00;;;6.50
20848;BMP180;10584;50.854;12.902;2023-04-15T08:06:31;96933.00;;;6.50
20848;BMP180;10584;50.854;12.902;2023-04-15T08:11:53;96937.00;;;6.50
20848;BMP180;10584;50.854;12.902;2023-04-15T08:17:15;96932.00;;;6.50
20848;BMP180;10584;50.854;12.902;2023-04-15T08:22:36;96935.00;;;6.70
20848;BMP180;10584;50.854;12.902;2023-04-15T08:27:58;96940.00;;;6.70
20848;BMP180;10584;50.854;12.902;2023-04-15T08:33:19;96957.00;;;6.60
20848;BMP180;10584;50.854;12.902;2023-04-15T08:38:41;96955.00;;;6.70
20848;BMP180;10584;50.854;12.902;2023-04-15T08:44:06;96957.00;;;6.80
20848;BMP180;10584;50.854;12.902;2023-04-15T08:49:28;96967.00;;;6.90
20848;BMP180;10584;50.854;12.902;2023-04-15T08:54:50;96965.00;;;7.10
20848;BMP180;10584;50.854;12.902;2023-04-15T09:00:12;96976.00;;;7.00
20848;BMP180;10584;50.854;12.902;2023-04-15T09:05:35;96974.00;;;7.20
20848;BMP180;10584;50.854;12.902;2023-04-15T09:10:57;96966.00;;;7.10
20848;BMP180;10584;50.854;12.902;2023-04-15T09:16:18;96969.00;;;6.90
20848;BMP180;10584;50.854;12.902;2023-04-15T09:21:40;96978.00;;;7.10
20848;BMP180;10584;50.854;12.902;2023-04-15T09:27:01;96975.00;;;7.20
20848;BMP180;10584;50.854;12.902;2023-04-15T09:32:23;97001.00;;;7.40
20848;BMP180;10584;50.854;12.902;2023-04-15T09:37:45;96999.00;;;7.50
20848;BMP180;10584;50.854;12.902;2023-04-15T09:43:08;96992.00;;;7.30
20848;BMP180;10584;50.854;12.902;2023-04-15T09:48:29;97012.00;;;7.50
20848;BMP180;10584;50.854;12.902;2023-04-15T09:53:54;97009.00;;;7.60
20848;BMP180;10584;50.854;12.902;2023-04-15T09:59:17;97008.00;;;7.70
20848;BMP180;10584;50.854;12.902;2023-04-15T10:04:41;97016.00;;;7.80
20848;BMP180;10584;50.854;12.902;2023-04-15T10:10:03;97020.00;;;7.70
20848;BMP180;10584;50.854;12.902;2023-04-15T10:15:26;97017.00;;;7.80
20848;BMP180;10584;50.854;12.902;2023-04-15T10:20:48;97027.00;;;7.90
20848;BMP180;10584;50.854;12.902;2023-04-15T10:26:12;97018.00;;;7.90
20848;BMP180;10584;50.854;12.902;2023-04-15T10:31:35;97031.00;;;7.80
20848;BMP180;10584;50.854;12.902;2023-04-15T10:37:01;97025.00;;;7.90
20848;BMP180;10584;50.854;12.902;2023-04-15T10:42:24;97042.00;;;8.10
20848;BMP180;10584;50.854;12.902;2023-04-15T10:47:57;97049.00;;;8.20
20848;BMP180;10584;50.854;12.902;2023-04-15T10:53:28;97046.00;;;8.30
20848;BMP180;10584;50.854;12.902;2023-04-15T10:58:51;97051.00;;;8.40
20848;BMP180;10584;50.854;12.902;2023-04-15T11:04:12;97050.00;;;8.30
20848;BMP180;10584;50.854;12.902;2023-04-15T11:09:34;97058.00;;;8.40
20848;BMP180;10584;50.854;12.902;2023-04-15T11:14:57;97058.00;;;8.50
20848;BMP180;10584;50.854;12.902;2023-04-15T11:20:18;97059.00;;;8.40
20848;BMP180;10584;50.854;12.902;2023-04-15T11:25:39;97069.00;;;8.50
20848;BMP180;10584;50.854;12.902;2023-04-15T11:31:18;97076.00;;;8.60
20848;BMP180;10584;50.854;12.902;2023-04-15T11:36:43;97072.00;;;8.60
20848;BMP180;10584;50.854;12.902;2023-04-15T11:42:16;97079.00;;;8.60
20848;BMP180;10584;50.854;12.902;2023-04-15T11:47:39;97088.00;;;8.60
20848;BMP180;10584;50.854;12.902;2023-04-15T11:53:02;97110.00;;;8.80
20848;BMP180;10584;50.854;12.902;2023-04-15T11:58:29;97101.00;;;8.80
20848;BMP180;10584;50.854;12.902;2023-04-15T12:03:50;97109.00;;;8.80
20848;BMP180;10584;50.854;12.902;2023-04-15T12:09:15;97113.00;;;8.60
20848;BMP180;10584;50.854;12.902;2023-04-15T12:14:39;97114.00;;;8.80
20848;BMP180;10584;50.854;12.902;2023-04-15T12:20:02;97130.00;;;8.80
20848;BMP180;10584;50.854;12.902;2023-04-15T12:25:33;97130.00;;;8.90
20848;BMP180;10584;50.854;12.902;2023-04-15T12:30:55;97130.00;;;9.00
20848;BMP180;10584;50.854;12.902;2023-04-15T12:36:17;97126.00;;;8.90
20848;BMP180;10584;50.854;12.902;2023-04-15T12:41:38;97139.00;;;8.90
20848;BMP180;10584;50.854;12.902;2023-04-15T12:47:00;97143.00;;;9.00
20848;BMP180;10584;50.854;12.902;2023-04-15T12:52:22;97155.00;;;9.00
20848;BMP180;10584;50.854;12.902;2023-04-15T12:57:44;97147.00;;;8.90
20848;BMP180;10584;50.854;12.902;2023-04-15T13:03:06;97166.00;;;9.00
20848;BMP180;10584;50.854;12.902;2023-04-15T13:08:27;97172.00;;;8.90
20848;BMP180;10584;50.854;12.902;2023-04-15T13:13:49;97175.00;;;9.00
20848;BMP180;10584;50.854;12.902;2023-04-15T13:19:12;97184.00;;;8.90
20848;BMP180;10584;50.854;12.902;2023-04-15T13:24:34;97191.00;;;8.90
20848;BMP180;10584;50.854;12.902;2023-04-15T13:29:56;97203.00;;;9.00
20848;BMP180;10584;50.854;12.902;2023-04-15T13:35:17;97210.00;;;8.90
20848;BMP180;10584;50.854;12.902;2023-04-15T13:40:39;97205.00;;;8.90
20848;BMP180;10584;50.854;12.902;2023-04-15T13:46:01;97216.00;;;8.90
20848;BMP180;10584;50.854;12.902;2023-04-15T13:51:22;97226.00;;;8.90
20848;BMP180;10584;50.854;12.902;2023-04-15T13:56:44;97234.00;;;8.80
20848;BMP180;10584;50.854;12.902;2023-04-15T14:02:06;97227.00;;;8.70
20848;BMP180;10584;50.854;12.902;2023-04-15T14:07:30;97227.00;;;8.80
20848;BMP180;10584;50.854;12.902;2023-04-15T14:12:51;97236.00;;;8.80
20848;BMP180;10584;50.854;12.902;2023-04-15T14:18:13;97239.00;;;8.90
20848;BMP180;10584;50.854;12.902;2023-04-15T14:23:34;97245.00;;;8.90
20848;BMP180;10584;50.854;12.902;2023-04-15T14:28:56;97255.00;;;9.00
20848;BMP180;10584;50.854;12.902;2023-04-15T14:34:17;97257.00;;;9.00
20848;BMP180;10584;50.854;12.902;2023-04-15T14:39:39;97264.00;;;9.20
20848;BMP180;10584;50.854;12.902;2023-04-15T14:45:00;97272.00;;;9.20
20848;BMP180;10584;50.854;12.902;2023-04-15T14:50:22;97278.00;;;9.30
20848;BMP180;10584;50.854;12.902;2023-04-15T14:55:43;97279.00;;;9.40
20848;BMP180;10584;50.854;12.902;2023-04-15T15:01:05;97298.00;;;9.30
20848;BMP180;10584;50.854;12.902;2023-04-15T15:06:27;97296.00;;;9.30
20848;BMP180;10584;50.854;12.902;2023-04-15T15:11:49;97296.00;;;9.20
20848;BMP180;10584;50.854;12.902;2023-04-15T15:17:11;97298.00;;;9.30
20848;BMP180;10584;50.854;12.902;2023-04-15T15:22:32;97314.00;;;9.50
20848;BMP180;10584;50.854;12.902;2023-04-15T15:27:54;97322.00;;;9.60
20848;BMP180;10584;50.854;12.902;2023-04-15T15:33:16;97333.00;;;9.70
20848;BMP180;10584;50.854;12.902;2023-04-15T15:38:39;97340.00;;;9.80
20848;BMP180;10584;50.854;12.902;2023-04-15T15:44:01;97339.00;;;9.70
20848;BMP180;10584;50.854;12.902;2023-04-15T15:49:23;97341.00;;;9.70
20848;BMP180;10584;50.854;12.902;2023-04-15T15:54:46;97353.00;;;9.90
20848;BMP180;10584;50.854;12.902;2023-04-15T16:00:09;97348.00;;;10.00
20848;BMP180;10584;50.854;12.902;2023-04-15T16:05:33;97355.00;;;10.20
20848;BMP180;10584;50.854;12.902;2023-04-15T16:10:56;97358.00;;;10.30
20848;BMP180;10584;50.854;12.902;2023-04-15T16:16:17;97379.00;;;10.30
20848;BMP180;10584;50.854;12.902;2023-04-15T16:21:39;97380.00;;;10.30
20848;BMP180;10584;50.854;12.902;2023-04-15T16:27:00;97387.00;;;10.30
20848;BMP180;10584;50.854;12.902;2023-04-15T16:32:22;97391.00;;;10.20
20848;BMP180;10584;50.854;12.902;2023-04-15T16:37:43;97402.00;;;10.20
20848;BMP180;10584;50.854;12.902;2023-04-15T16:43:05;97402.00;;;10.10
20848;BMP180;10584;50.854;12.902;2023-04-15T16:48:31;97410.00;;;10.10
20848;BMP180;10584;50.854;12.902;2023-04-15T16:53:52;97410.00;;;10.10
20848;BMP180;10584;50.854;12.902;2023-04-15T16:59:14;97408.00;;;10.00
20848;BMP180;10584;50.854;12.902;2023-04-15T17:04:35;97428.00;;;9.90
20848;BMP180;10584;50.854;12.902;2023-04-15T17:09:57;97430.00;;;9.90
20848;BMP180;10584;50.854;12.902;2023-04-15T17:15:19;97436.00;;;9.70
20848;BMP180;10584;50.854;12.902;2023-04-15T17:20:41;97452.00;;;9.60
20848;BMP180;10584;50.854;12.902;2023-04-15T17:26:02;97463.00;;;9.60
20848;BMP180;10584;50.854;12.902;2023-04-15T17:31:24;97460.00;;;9.60
20848;BMP180;10584;50.854;12.902;2023-04-15T17:36:46;97476.00;;;9.60
20848;BMP180;10584;50.854;12.902;2023-04-15T17:42:10;97481.00;;;9.60
20848;BMP180;10584;50.854;12.902;2023-04-15T17:47:34;97491.00;;;9.50
20848;BMP180;10584;50.854;12.902;2023-04-15T17:52:56;97495.00;;;9.50
20848;BMP180;10584;50.854;12.902;2023-04-15T17:58:19;97500.00;;;9.40
20848;BMP180;10584;50.854;12.902;2023-04-15T18:03:40;97519.00;;;9.50
20848;BMP180;10584;50.854;12.902;2023-04-15T18:09:02;97526.00;;;9.40
20848;BMP180;10584;50.854;12.902;2023-04-15T18:14:24;97523.00;;;9.40
20848;BMP180;10584;50.854;12.902;2023-04-15T18:19:55;97533.00;;;9.40
20848;BMP180;10584;50.854;12.902;2023-04-15T18:25:17;97547.00;;;9.40
20848;BMP180;10584;50.854;12.902;2023-04-15T18:30:38;97550.00;;;9.40
20848;BMP180;10584;50.854;12.902;2023-04-15T18:36:00;97561.00;;;9.40
20848;BMP180;10584;50.854;12.902;2023-04-15T18:41:22;97564.00;;;9.30
20848;BMP180;10584;50.854;12.902;2023-04-15T18:46:46;97566.00;;;9.30
20848;BMP180;10584;50.854;12.902;2023-04-15T18:52:11;97571.00;;;9.20
20848;BMP180;10584;50.854;12.902;2023-04-15T18:57:33;97584.00;;;9.20
20848;BMP180;10584;50.854;12.902;2023-04-15T19:02:55;97585.00;;;9.10
20848;BMP180;10584;50.854;12.902;2023-04-15T19:08:17;97581.00;;;9.10
20848;BMP180;10584;50.854;12.902;2023-04-15T19:13:39;97592.00;;;9.00
20848;BMP180;10584;50.854;12.902;2023-04-15T19:19:00;97602.00;;;9.00
20848;BMP180;10584;50.854;12.902;2023-04-15T19:24:22;97605.00;;;9.00
20848;BMP180;10584;50.854;12.902;2023-04-15T19:29:43;97614.00;;;8.90
20848;BMP180;10584;50.854;12.902;2023-04-15T19:35:06;97617.00;;;8.90
20848;BMP180;10584;50.854;12.902;2023-04-15T19:40:31;97615.00;;;8.90
20848;BMP180;10584;50.854;12.902;2023-04-15T19:45:53;97623.00;;;8.90
20848;BMP180;10584;50.854;12.902;2023-04-15T19:51:15;97626.00;;;8.80
20848;BMP180;10584;50.854;12.902;2023-04-15T19:56:36;97638.00;;;8.80
20848;BMP180;10584;50.854;12.902;2023-04-15T20:01:58;97643.00;;;8.80
20848;BMP180;10584;50.854;12.902;2023-04-15T20:07:19;97645.00;;;8.70
20848;BMP180;10584;50.854;12.902;2023-04-15T20:12:41;97644.00;;;8.70
20848;BMP180;10584;50.854;12.902;2023-04-15T20:18:13;97644.00;;;8.70
20848;BMP180;10584;50.854;12.902;2023-04-15T20:23:34;97655.00;;;8.60
20848;BMP180;10584;50.854;12.902;2023-04-15T20:28:58;97656.00;;;8.60
20848;BMP180;10584;50.854;12.902;2023-04-15T20:34:21;97658.00;;;8.60
20848;BMP180;10584;50.854;12.902;2023-04-15T20:39:42;97667.00;;;8.50
20848;BMP180;10584;50.854;12.902;2023-04-15T20:45:04;97664.00;;;8.50
20848;BMP180;10584;50.854;12.902;2023-04-15T20:50:27;97677.00;;;8.40
20848;BMP180;10584;50.854;12.902;2023-04-15T20:55:48;97676.00;;;8.30
20848;BMP180;10584;50.854;12.902;2023-04-15T21:01:10;97677.00;;;8.30
20848;BMP180;10584;50.854;12.902;2023-04-15T21:06:33;97681.00;;;8.30
20848;BMP180;10584;50.854;12.902;2023-04-15T21:11:55;97684.00;;;8.20
20848;BMP180;10584;50.854;12.902;2023-04-15T21:17:21;97687.00;;;8.20
20848;BMP180;10584;50.854;12.902;2023-04-15T21:22:43;97696.00;;;8.10
20848;BMP180;10584;50.854;12.902;2023-04-15T21:28:04;97705.00;;;8.10
20848;BMP180;10584;50.854;12.902;2023-04-15T21:33:26;97707.00;;;8.10
20848;BMP180;10584;50.854;12.902;2023-04-15T21:38:47;97714.00;;;8.00
20848;BMP180;10584;50.854;12.902;2023-04-15T21:44:10;97715.00;;;8.00
20848;BMP180;10584;50.854;12.902;2023-04-15T21:49:34;97715.00;;;8.00
20848;BMP180;10584;50.854;12.902;2023-04-15T21:54:56;97721.00;;;7.90
20848;BMP180;10584;50.854;12.902;2023-04-15T22:00:17;97719.00;;;7.90
20848;BMP180;10584;50.854;12.902;2023-04-15T22:05:38;97735.00;;;7.90
20848;BMP180;10584;50.854;12.902;2023-04-15T22:11:00;97739.00;;;7.80
20848;BMP180;10584;50.854;12.902;2023-04-15T22:16:22;97743.00;;;7.80
20848;BMP180;10584;50.854;12.902;2023-04-15T22:21:43;97745.00;;;7.80
20848;BMP180;10584;50.854;12.902;2023-04-15T22:27:05;97748.00;;;7.80
20848;BMP180;10584;50.854;12.902;2023-04-15T22:32:26;97772.00;;;7.80
20848;BMP180;10584;50.854;12.902;2023-04-15T22:37:48;97771.00;;;7.70
20848;BMP180;10584;50.854;12.902;2023-04-15T22:43:09;97780.00;;;7.70
20848;BMP180;10584;50.854;12.902;2023-04-15T22:48:31;97777.00;;;7.70
20848;BMP180;10584;50.854;12.902;2023-04-15T22:53:53;97776.00;;;7.70
20848;BMP180;10584;50.854;12.902;2023-04-15T22:59:14;97787.00;;;7.70
20848;BMP180;10584;50.854;12.902;2023-04-15T23:04:35;97784.00;;;7.70
20848;BMP180;10584;50.854;12.902;2023-04-15T23:09:57;97787.00;;;7.70
20848;BMP180;10584;50.854;12.902;2023-04-15T23:15:20;97786.00;;;7.70
20848;BMP180;10584;50.854;12.902;2023-04-15T23:20:42;97791.00;;;7.70
20848;BMP180;10584;50.854;12.902;2023-04-15T23:26:04;97800.00;;;7.60
20848;BMP180;10584;50.854;12.902;2023-04-15T23:31:25;97802.00;;;7.60
20848;BMP180;10584;50.854;12.902;2023-04-15T23:36:46;97808.00;;;7.70
20848;BMP180;10584;50.854;12.902;2023-04-15T23:42:08;97798.00;;;7.70
20848;BMP180;10584;50.854;12.902;2023-04-15T23:47:30;97807.00;;;7.70
20848;BMP180;10584;50.854;12.902;2023-04-15T23:52:51;97803.00;;;7.60
20848;BMP180;10584;50.854;12.902;2023-04-15T23:58:13;97803.00;;;7.60
